Time;durP1;ratioP1;P1;durP2;ratioP2;P2;SDS_P1;SDS_P2;PMS_P1;PMS_P2;Temp;Humidity;BMP_temperature;BMP_pressure;BME280_temperature;BME280_humidity;BME280_pressure;Samples;Min_cycle;Max_cycle;Signal;HPM_P1;HPM_P2
2023/05/27 00:01:48;;;;;;;0.30;0.30;;;9.00;99.90;;;;;;5113569;28;20093;-70
2023/05/27 00:04:14;;;;;;;0.30;0.30;;;9.40;99.90;;;;;;5113513;28;20118;-71
2023/05/27 00:06:40;;;;;;;0.30;0.30;;;8.30;99.90;;;;;;5113829;28;20475;-70
2023/05/27 00:09:05;;;;;;;0.20;0.20;;;8.40;99.90;;;;;;5113618;28;20079;-70
2023/05/27 00:11:31;;;;;;;0.20;0.20;;;8.40;99.90;;;;;;5113433;28;20461;-70
2023/05/27 00:13:57;;;;;;;0.60;0.60;;;8.30;99.90;;;;;;5113131;28;20518;-70
2023/05/27 00:16:23;;;;;;;0.30;0.30;;;8.50;99.90;;;;;;5095137;28;20096;-70
2023/05/27 00:18:49;;;;;;;0.20;0.20;;;8.80;99.90;;;;;;5113267;28;20055;-70
2023/05/27 00:21:15;;;;;;;0.55;0.55;;;8.80;99.90;;;;;;5113243;28;20387;-67
2023/05/27 00:23:45;;;;;;;0.30;0.30;;;8.90;99.90;;;;;;5113563;28;20047;-69
2023/05/27 00:26:11;;;;;;;0.30;0.30;;;9.10;99.90;;;;;;5113566;28;20421;-67
2023/05/27 00:28:37;;;;;;;0.20;0.20;;;9.00;99.90;;;;;;5113450;28;20055;-67
2023/05/27 00:31:02;;;;;;;0.20;0.20;;;8.50;99.90;;;;;;5094844;28;20048;-69
2023/05/27 00:33:28;;;;;;;0.30;0.30;;;8.70;99.90;;;;;;5113267;28;20399;-70
2023/05/27 00:35:54;;;;;;;0.20;0.20;;;8.90;99.90;;;;;;5095474;28;20153;-70
2023/05/27 00:38:20;;;;;;;0.63;0.63;;;8.50;99.90;;;;;;5095303;28;20051;-70
2023/05/27 00:40:46;;;;;;;1.17;1.10;;;8.40;99.90;;;;;;5078244;28;20104;-71
2023/05/27 00:43:12;;;;;;;0.20;0.20;;;8.30;99.90;;;;;;5113204;28;20083;-70
2023/05/27 00:45:38;;;;;;;0.20;0.20;;;8.80;99.90;;;;;;5113143;28;20090;-70
2023/05/27 00:48:04;;;;;;;0.40;0.40;;;8.60;99.90;;;;;;5095039;28;20396;-70
2023/05/27 00:50:30;;;;;;;1.45;0.55;;;8.50;99.90;;;;;;5113050;28;20040;-70
2023/05/27 00:52:57;;;;;;;0.20;0.20;;;8.70;99.90;;;;;;5095085;28;20051;-70
2023/05/27 00:55:23;;;;;;;5.78;0.93;;;8.50;99.90;;;;;;5112993;28;20047;-70
2023/05/27 00:57:49;;;;;;;0.20;0.20;;;8.90;99.90;;;;;;5112926;28;20048;-69
2023/05/27 01:00:15;;;;;;;0.30;0.30;;;8.90;99.90;;;;;;5112922;28;20050;-70
2023/05/27 01:02:42;;;;;;;0.35;0.35;;;7.90;99.90;;;;;;5112791;28;20043;-69
2023/05/27 01:05:12;;;;;;;0.52;0.52;;;7.90;99.90;;;;;;5113048;28;20074;-70
2023/05/27 01:07:47;;;;;;;0.98;0.82;;;7.90;99.90;;;;;;5112918;28;20118;-70
2023/05/27 01:10:28;;;;;;;0.20;0.20;;;8.10;99.90;;;;;;5112857;28;20131;-70
2023/05/27 01:13:03;;;;;;;0.25;0.25;;;8.00;99.90;;;;;;5112903;28;20495;-70
2023/05/27 01:15:32;;;;;;;0.20;0.20;;;8.50;99.90;;;;;;5112880;28;20047;-69
2023/05/27 01:18:01;;;;;;;0.30;0.30;;;8.50;99.90;;;;;;5112808;28;20048;-70
2023/05/27 01:20:29;;;;;;;3.92;0.57;;;8.60;99.90;;;;;;5112857;28;20052;-69
2023/05/27 01:22:57;;;;;;;0.30;0.30;;;8.30;99.90;;;;;;5112771;28;20104;-70
2023/05/27 01:25:23;;;;;;;0.20;0.20;;;8.30;99.90;;;;;;5095363;28;20090;-70
2023/05/27 01:27:50;;;;;;;0.40;0.40;;;8.60;99.90;;;;;;5116774;28;20384;-68
2023/05/27 01:30:16;;;;;;;0.20;0.20;;;8.90;99.90;;;;;;5116815;28;20100;-69
2023/05/27 01:33:11;;;;;;;0.30;0.30;;;8.30;99.90;;;;;;5116363;28;20138;-69
2023/05/27 01:35:42;;;;;;;1.27;1.05;;;8.50;99.90;;;;;;5116131;28;20093;-69
2023/05/27 01:38:12;;;;;;;0.30;0.30;;;8.40;99.90;;;;;;5116637;28;20047;-68
2023/05/27 01:40:40;;;;;;;0.30;0.30;;;8.90;99.90;;;;;;5098807;28;20053;-67
2023/05/27 01:43:07;;;;;;;0.40;0.35;;;9.10;99.90;;;;;;5116760;28;20042;-68
2023/05/27 01:45:34;;;;;;;1.48;0.55;;;8.60;99.90;;;;;;5116589;28;20051;-69
2023/05/27 01:48:00;;;;;;;0.38;0.38;;;8.80;99.90;;;;;;5116538;28;20051;-69
2023/05/27 01:50:26;;;;;;;0.20;0.20;;;8.00;99.90;;;;;;5098261;28;20074;-70
2023/05/27 01:52:51;;;;;;;0.30;0.30;;;8.40;99.90;;;;;;5116243;28;20093;-70
2023/05/27 01:55:17;;;;;;;0.25;0.25;;;8.80;99.90;;;;;;5098480;28;20051;-70
2023/05/27 01:57:43;;;;;;;0.28;0.28;;;8.90;99.90;;;;;;5098432;28;20112;-70
2023/05/27 02:00:09;;;;;;;;;;;8.40;99.90;;;;;;5116710;28;20051;-69
2023/05/27 02:02:36;;;;;;;0.25;0.25;;;8.60;99.90;;;;;;5098261;28;19961;-70
2023/05/27 02:05:02;;;;;;;0.20;0.20;;;8.30;99.90;;;;;;5116108;28;20058;-70
2023/05/27 02:07:27;;;;;;;;;;;8.40;99.90;;;;;;5098781;28;20135;-69
2023/05/27 02:09:53;;;;;;;0.25;0.25;;;8.60;99.90;;;;;;5116194;28;20022;-69
2023/05/27 02:12:19;;;;;;;0.38;0.38;;;8.70;99.90;;;;;;5115906;28;20491;-70
2023/05/27 02:14:46;;;;;;;0.30;0.30;;;8.70;99.90;;;;;;5115810;28;20093;-68
2023/05/27 02:17:14;;;;;;;0.20;0.20;;;8.10;99.90;;;;;;5115895;28;20059;-67
2023/05/27 02:19:40;;;;;;;0.40;0.40;;;8.90;99.90;;;;;;5097674;28;20050;-68
2023/05/27 02:22:06;;;;;;;;;;;9.20;99.90;;;;;;5116413;28;20130;-68
2023/05/27 02:24:32;;;;;;;0.35;0.35;;;8.60;99.90;;;;;;5116053;28;20057;-69
2023/05/27 02:26:58;;;;;;;0.30;0.30;;;9.10;99.90;;;;;;5097732;28;20044;-68
2023/05/27 02:29:24;;;;;;;;;;;8.70;99.90;;;;;;5130521;27;20068;-68
2023/05/27 02:31:49;;;;;;;0.55;0.55;;;8.80;99.90;;;;;;5135876;27;19923;-69
2023/05/27 02:34:15;;;;;;;0.40;0.40;;;9.00;99.90;;;;;;5136094;27;20054;-68
2023/05/27 02:36:41;;;;;;;1.02;0.82;;;9.00;99.90;;;;;;5117571;27;20046;-67
2023/05/27 02:39:08;;;;;;;0.30;0.30;;;9.00;99.90;;;;;;5136016;27;20046;-69
2023/05/27 02:41:34;;;;;;;0.43;0.43;;;9.10;99.90;;;;;;5136031;27;20050;-69
2023/05/27 02:43:59;;;;;;;0.22;0.22;;;8.70;99.90;;;;;;5135886;27;20043;-69
2023/05/27 02:46:25;;;;;;;0.32;0.32;;;8.40;99.90;;;;;;5135853;27;20416;-70
2023/05/27 02:48:51;;;;;;;2.00;0.57;;;9.10;99.90;;;;;;5135829;27;20506;-70
2023/05/27 02:51:16;;;;;;;0.30;0.30;;;8.60;99.90;;;;;;5117667;27;20047;-70
2023/05/27 02:53:42;;;;;;;0.38;0.38;;;9.10;99.90;;;;;;5135978;27;20039;-70
2023/05/27 02:56:08;;;;;;;0.40;0.35;;;8.80;99.90;;;;;;5135839;27;20049;-69
2023/05/27 02:58:33;;;;;;;1.55;0.38;;;8.40;99.90;;;;;;5117469;27;20451;-69
2023/05/27 03:00:59;;;;;;;0.43;0.43;;;9.00;99.90;;;;;;5135512;27;20039;-69
2023/05/27 03:03:25;;;;;;;0.30;0.30;;;9.10;99.90;;;;;;5135429;27;20538;-69
2023/05/27 03:05:50;;;;;;;0.20;0.20;;;8.50;99.90;;;;;;5117239;27;20039;-71
2023/05/27 03:08:16;;;;;;;0.40;0.40;;;8.50;99.90;;;;;;5117061;27;20043;-69
2023/05/27 03:10:42;;;;;;;0.40;0.40;;;8.90;99.90;;;;;;5135345;27;20040;-69
2023/05/27 03:13:07;;;;;;;0.40;0.40;;;8.20;99.90;;;;;;5135222;27;20478;-69
2023/05/27 03:15:35;;;;;;;0.30;0.30;;;8.40;99.90;;;;;;5135343;27;20066;-69
2023/05/27 03:18:03;;;;;;;0.35;0.35;;;8.90;99.90;;;;;;5116944;27;20043;-69
2023/05/27 03:20:29;;;;;;;0.30;0.30;;;8.10;99.90;;;;;;5135004;27;20494;-69
2023/05/27 03:22:55;;;;;;;0.20;0.20;;;8.60;99.90;;;;;;5117137;27;20047;-69
2023/05/27 03:25:20;;;;;;;0.30;0.30;;;9.40;99.90;;;;;;5135283;27;20043;-69
2023/05/27 03:27:46;;;;;;;0.30;0.30;;;9.30;99.90;;;;;;5135293;27;20053;-69
2023/05/27 03:30:12;;;;;;;0.30;0.30;;;8.80;99.90;;;;;;5116745;27;20043;-69
2023/05/27 03:32:38;;;;;;;0.30;0.30;;;8.70;99.90;;;;;;5134748;27;20083;-69
2023/05/27 03:35:04;;;;;;;0.30;0.30;;;8.60;99.90;;;;;;5134788;27;20046;-69
2023/05/27 03:37:29;;;;;;;0.40;0.40;;;9.30;99.90;;;;;;5135051;27;20126;-69
2023/05/27 03:39:55;;;;;;;0.20;0.20;;;8.80;99.90;;;;;;5134952;27;20053;-69
2023/05/27 03:42:21;;;;;;;0.30;0.30;;;8.50;99.90;;;;;;5116721;27;20486;-69
2023/05/27 03:44:47;;;;;;;0.55;0.55;;;8.50;99.90;;;;;;5134729;27;20053;-69
2023/05/27 03:47:12;;;;;;;0.38;0.38;;;8.80;99.90;;;;;;5134725;27;20043;-69
2023/05/27 03:49:38;;;;;;;3.88;0.80;;;8.80;99.90;;;;;;5133969;27;20047;-70
2023/05/27 03:52:04;;;;;;;0.52;0.45;;;9.50;99.90;;;;;;5116580;27;20134;-70
2023/05/27 03:54:30;;;;;;;;;;;8.60;99.90;;;;;;5111482;28;20047;-70
2023/05/27 03:56:56;;;;;;;0.40;0.40;;;8.40;99.90;;;;;;5114068;28;19924;-69
2023/05/27 03:59:21;;;;;;;0.30;0.30;;;9.40;99.90;;;;;;5114020;28;20101;-69
2023/05/27 04:01:47;;;;;;;0.22;0.22;;;8.90;99.90;;;;;;5113796;28;20468;-69
2023/05/27 04:04:13;;;;;;;0.30;0.30;;;9.40;99.90;;;;;;5113713;28;20054;-69
2023/05/27 04:06:39;;;;;;;0.70;0.35;;;9.00;99.90;;;;;;5096047;28;20094;-69
2023/05/27 04:09:04;;;;;;;0.30;0.30;;;8.70;99.90;;;;;;5095646;28;20495;-69
2023/05/27 04:11:30;;;;;;;0.30;0.30;;;9.10;99.90;;;;;;5113504;28;20429;-69
2023/05/27 04:13:57;;;;;;;0.30;0.30;;;9.50;99.90;;;;;;5113625;28;20403;-70
2023/05/27 04:16:24;;;;;;;0.28;0.28;;;8.70;99.90;;;;;;5113595;28;20048;-69
2023/05/27 04:18:51;;;;;;;0.40;0.40;;;9.20;99.90;;;;;;5095591;28;20063;-69
2023/05/27 04:21:20;;;;;;;0.40;0.40;;;9.90;99.90;;;;;;5113549;28;20496;-69
2023/05/27 04:23:46;;;;;;;0.40;0.40;;;9.00;99.90;;;;;;5113575;28;20054;-69
2023/05/27 04:26:12;;;;;;;0.30;0.30;;;8.90;99.90;;;;;;5113543;28;20051;-69
2023/05/27 04:28:39;;;;;;;0.43;0.43;;;9.10;99.90;;;;;;5113437;28;20051;-69
2023/05/27 04:31:04;;;;;;;;;;;9.30;99.90;;;;;;5113412;28;20069;-69
2023/05/27 04:33:30;;;;;;;7.97;0.77;;;8.90;99.90;;;;;;5113546;28;20006;-68
2023/05/27 04:35:56;;;;;;;0.75;0.75;;;9.50;99.90;;;;;;5113471;28;20043;-69
2023/05/27 04:38:22;;;;;;;0.28;0.25;;;9.20;99.90;;;;;;5113287;28;20040;-70
2023/05/27 04:40:52;;;;;;;;;;;9.50;99.90;;;;;;5113460;28;20503;-69
2023/05/27 04:43:21;;;;;;;0.20;0.20;;;9.50;99.90;;;;;;5113133;28;19920;-69
2023/05/27 04:45:47;;;;;;;0.55;0.55;;;9.60;99.90;;;;;;5095085;28;20051;-69
2023/05/27 04:48:13;;;;;;;;;;;9.40;99.90;;;;;;5113619;28;20462;-69
2023/05/27 04:50:40;;;;;;;1.20;0.85;;;9.60;99.90;;;;;;5113095;28;19986;-69
2023/05/27 04:53:06;;;;;;;0.60;0.60;;;9.40;99.90;;;;;;5113107;28;20398;-69
2023/05/27 04:55:32;;;;;;;0.38;0.38;;;10.00;99.90;;;;;;5113039;28;20043;-69
2023/05/27 04:57:59;;;;;;;0.30;0.30;;;10.20;99.90;;;;;;5112922;28;20040;-69
2023/05/27 05:00:38;;;;;;;0.88;0.73;;;10.20;99.90;;;;;;5111845;28;20173;-69
2023/05/27 05:03:05;;;;;;;0.30;0.30;;;9.90;99.90;;;;;;5113053;28;20048;-69
2023/05/27 05:05:31;;;;;;;0.60;0.60;;;10.60;99.90;;;;;;5113014;28;20042;-69
2023/05/27 05:07:57;;;;;;;0.65;0.63;;;10.40;99.90;;;;;;5094757;28;20047;-69
2023/05/27 05:10:23;;;;;;;0.20;0.20;;;10.20;99.90;;;;;;5112752;28;20044;-69
2023/05/27 05:12:49;;;;;;;0.50;0.50;;;10.40;99.90;;;;;;5112695;28;20132;-69
2023/05/27 05:15:15;;;;;;;4.18;0.50;;;10.50;99.90;;;;;;5112957;28;20048;-69
2023/05/27 05:17:41;;;;;;;8.13;0.77;;;10.00;99.90;;;;;;5112913;28;20047;-68
2023/05/27 05:20:08;;;;;;;0.30;0.30;;;10.10;99.90;;;;;;5112793;28;20087;-69
2023/05/27 05:22:34;;;;;;;0.20;0.20;;;10.40;99.90;;;;;;5112789;28;20112;-69
2023/05/27 05:25:00;;;;;;;0.20;0.20;;;10.60;99.90;;;;;;5112753;28;20044;-68
2023/05/27 05:27:27;;;;;;;0.30;0.30;;;10.30;99.90;;;;;;5112501;28;20157;-68
2023/05/27 05:29:53;;;;;;;0.20;0.20;;;10.30;99.90;;;;;;5112350;28;20084;-69
2023/05/27 05:32:19;;;;;;;0.63;0.63;;;11.00;99.90;;;;;;5112474;28;20063;-68
2023/05/27 05:34:45;;;;;;;0.30;0.30;;;12.10;99.90;;;;;;5112640;28;20051;-68
2023/05/27 05:37:11;;;;;;;0.30;0.30;;;10.70;99.90;;;;;;5112659;28;20046;-68
2023/05/27 05:39:37;;;;;;;0.43;0.43;;;11.00;99.90;;;;;;5112496;28;20502;-68
2023/05/27 05:42:02;;;;;;;0.88;0.70;;;10.80;99.90;;;;;;5112618;28;20085;-67
2023/05/27 05:44:28;;;;;;;0.88;0.88;;;11.30;99.90;;;;;;5094393;28;20087;-69
2023/05/27 05:46:54;;;;;;;0.63;0.63;;;10.80;99.90;;;;;;5112561;28;20044;-69
2023/05/27 05:49:20;;;;;;;0.22;0.22;;;10.70;99.90;;;;;;5112631;28;20101;-69
2023/05/27 05:51:46;;;;;;;0.30;0.30;;;11.00;99.90;;;;;;5112509;28;20047;-69
2023/05/27 05:54:11;;;;;;;1.83;0.77;;;11.30;99.90;;;;;;5094311;28;20043;-66
2023/05/27 05:56:37;;;;;;;0.40;0.40;;;11.60;99.90;;;;;;5112327;28;20056;-68
2023/05/27 05:59:03;;;;;;;0.70;0.70;;;11.40;99.90;;;;;;5112737;28;20087;-69
2023/05/27 06:01:29;;;;;;;0.43;0.43;;;11.40;99.90;;;;;;5112609;28;20059;-67
2023/05/27 06:03:56;;;;;;;0.77;0.77;;;11.40;99.90;;;;;;5112434;28;20045;-69
2023/05/27 06:06:22;;;;;;;0.28;0.28;;;11.10;99.90;;;;;;5094293;28;20093;-68
2023/05/27 06:08:48;;;;;;;0.30;0.30;;;11.40;99.90;;;;;;5094221;28;20054;-68
2023/05/27 06:11:13;;;;;;;2.22;2.08;;;11.60;99.90;;;;;;5112523;28;20044;-68
2023/05/27 06:13:40;;;;;;;0.38;0.38;;;11.60;99.90;;;;;;5115927;28;20135;-69
2023/05/27 06:16:06;;;;;;;0.73;0.73;;;11.70;99.90;;;;;;5116175;28;20093;-67
2023/05/27 06:18:32;;;;;;;0.40;0.40;;;11.60;99.90;;;;;;5116096;28;20422;-67
2023/05/27 06:20:57;;;;;;;0.40;0.40;;;11.30;99.90;;;;;;5115986;28;20044;-67
2023/05/27 06:23:23;;;;;;;1.15;0.77;;;11.70;99.90;;;;;;5115931;28;20040;-68
2023/05/27 06:25:49;;;;;;;0.80;0.80;;;11.80;99.90;;;;;;5115749;28;20411;-68
2023/05/27 06:28:14;;;;;;;0.30;0.30;;;11.80;99.90;;;;;;5115631;28;20142;-67
2023/05/27 06:30:41;;;;;;;0.35;0.35;;;11.50;99.90;;;;;;5118556;27;20042;-68
2023/05/27 06:33:07;;;;;;;2.22;2.05;;;12.00;99.90;;;;;;5128735;27;20449;-68
2023/05/27 06:35:32;;;;;;;2.63;0.85;;;11.70;99.90;;;;;;5132791;27;20043;-69
2023/05/27 06:37:58;;;;;;;0.90;0.65;;;11.90;99.90;;;;;;5135111;27;20067;-68
2023/05/27 06:40:24;;;;;;;;;;;12.20;99.90;;;;;;5107256;27;20500;-66
2023/05/27 06:42:50;;;;;;;1.20;1.15;;;12.60;99.90;;;;;;5119953;27;19927;-67
2023/05/27 06:45:16;;;;;;;0.20;0.20;;;12.50;99.90;;;;;;5127600;27;20092;-68
2023/05/27 06:47:42;;;;;;;0.75;0.75;;;12.80;99.90;;;;;;5134681;27;20043;-68
2023/05/27 06:50:08;;;;;;;2.25;0.65;;;12.70;99.90;;;;;;5123271;27;20484;-69
2023/05/27 06:52:33;;;;;;;0.70;0.55;;;12.50;99.90;;;;;;5114476;28;20078;-68
2023/05/27 06:55:00;;;;;;;0.70;0.70;;;12.80;99.90;;;;;;5114179;28;20491;-67
2023/05/27 06:57:25;;;;;;;1.15;0.80;;;12.80;99.90;;;;;;5114825;27;20050;-67
2023/05/27 06:59:51;;;;;;;0.40;0.40;;;12.50;99.90;;;;;;5114719;28;20043;-65
2023/05/27 07:02:17;;;;;;;0.32;0.32;;;12.70;99.90;;;;;;5113562;27;20509;-67
2023/05/27 07:04:42;;;;;;;7.57;0.65;;;12.90;99.90;;;;;;5114558;28;20042;-65
2023/05/27 07:07:08;;;;;;;0.38;0.38;;;12.80;99.90;;;;;;5114469;27;20437;-68
2023/05/27 07:09:34;;;;;;;0.40;0.40;;;12.50;99.90;;;;;;5113791;28;20048;-65
2023/05/27 07:12:01;;;;;;;0.75;0.75;;;13.20;99.90;;;;;;5114024;28;20043;-66
2023/05/27 07:14:27;;;;;;;2.78;1.40;;;12.80;99.90;;;;;;5099833;28;20561;-66
2023/05/27 07:16:52;;;;;;;0.38;0.38;;;13.00;99.90;;;;;;5113890;28;20048;-66
2023/05/27 07:19:18;;;;;;;0.40;0.40;;;13.00;99.90;;;;;;5114085;27;20051;-66
2023/05/27 07:21:44;;;;;;;0.47;0.45;;;13.30;99.90;;;;;;5114179;28;20065;-66
2023/05/27 07:24:10;;;;;;;0.35;0.35;;;13.10;99.90;;;;;;5112560;27;20040;-67
2023/05/27 07:26:36;;;;;;;0.60;0.60;;;13.10;99.90;;;;;;5113962;28;20194;-67
2023/05/27 07:29:02;;;;;;;0.55;0.35;;;12.90;99.90;;;;;;5114211;28;20566;-67
2023/05/27 07:31:29;;;;;;;0.30;0.30;;;13.50;99.90;;;;;;5113398;28;20056;-67
2023/05/27 07:33:54;;;;;;;0.50;0.50;;;13.30;99.90;;;;;;5089218;28;20047;-67
2023/05/27 07:36:20;;;;;;;0.25;0.25;;;13.50;99.90;;;;;;5095717;28;20051;-65
2023/05/27 07:38:46;;;;;;;0.65;0.60;;;13.40;99.90;;;;;;5118144;27;20126;-66
2023/05/27 07:41:13;;;;;;;1.33;1.33;;;13.90;99.90;;;;;;5125658;27;20039;-65
2023/05/27 07:43:39;;;;;;;0.43;0.43;;;13.90;99.90;;;;;;5117525;27;20458;-62
2023/05/27 07:46:05;;;;;;;0.40;0.40;;;13.50;99.90;;;;;;5113512;28;20051;-65
2023/05/27 07:48:31;;;;;;;0.73;0.73;;;13.70;99.90;;;;;;5094257;28;20043;-63
2023/05/27 07:50:56;;;;;;;0.30;0.30;;;13.70;99.90;;;;;;5113268;28;20173;-61
2023/05/27 07:53:22;;;;;;;1.35;1.35;;;13.80;99.90;;;;;;5113146;28;20118;-63
2023/05/27 07:55:48;;;;;;;;;;;13.70;99.90;;;;;;5113048;28;20054;-63
2023/05/27 07:58:14;;;;;;;0.55;0.40;;;13.90;99.90;;;;;;5094980;28;19923;-62
2023/05/27 08:00:40;;;;;;;6.00;1.27;;;13.30;99.90;;;;;;5113149;27;20053;-63
2023/05/27 08:03:05;;;;;;;;;;;13.60;99.90;;;;;;5112729;28;20126;-64
2023/05/27 08:05:32;;;;;;;0.50;0.50;;;14.20;99.90;;;;;;5113014;28;20046;-64
2023/05/27 08:07:58;;;;;;;0.90;0.90;;;14.10;99.90;;;;;;5112980;28;20044;-65
2023/05/27 08:10:24;;;;;;;0.40;0.40;;;14.40;99.90;;;;;;5112125;27;20159;-63
2023/05/27 08:12:50;;;;;;;0.40;0.40;;;14.40;99.90;;;;;;5112760;28;20044;-67
2023/05/27 08:15:16;;;;;;;1.95;0.85;;;14.20;99.90;;;;;;5094938;28;20051;-63
2023/05/27 08:17:43;;;;;;;;;;;14.60;99.90;;;;;;5112340;27;20123;-63
2023/05/27 08:20:09;;;;;;;;;;;15.20;99.90;;;;;;5094676;27;20260;-67
2023/05/27 08:22:34;;;;;;;0.32;0.32;;;14.90;99.90;;;;;;5112631;28;19930;-66
2023/05/27 08:25:00;;;;;;;0.50;0.50;;;15.40;99.90;;;;;;5112047;28;20484;-65
2023/05/27 08:28:01;;;;;;;;;;;15.30;99.90;;;;;;5113468;28;20047;-64
2023/05/27 08:30:32;;;;;;;1.23;0.68;;;15.00;99.90;;;;;;5012373;28;19976;-67
2023/05/27 08:32:58;;;;;;;0.30;0.30;;;15.20;99.90;;;;;;5063797;28;20049;-68
2023/05/27 08:35:24;;;;;;;0.47;0.47;;;15.30;99.90;;;;;;5073160;28;20052;-65
2023/05/27 08:37:50;;;;;;;8.90;0.77;;;14.70;99.90;;;;;;5092163;28;20048;-66
2023/05/27 08:40:17;;;;;;;0.75;0.75;;;14.90;99.90;;;;;;5091076;28;20488;-68
2023/05/27 08:42:44;;;;;;;0.57;0.57;;;15.10;99.90;;;;;;5091764;28;20048;-67
2023/05/27 08:45:10;;;;;;;0.55;0.55;;;15.10;99.90;;;;;;5091616;28;20466;-66
2023/05/27 08:47:38;;;;;;;1.17;0.30;;;15.20;99.90;;;;;;5090288;28;20044;-67
2023/05/27 08:50:04;;;;;;;0.40;0.40;;;15.50;99.90;;;;;;5091540;28;20066;-65
2023/05/27 08:52:30;;;;;;;0.40;0.40;;;15.70;99.90;;;;;;5071980;28;20063;-68
2023/05/27 08:54:56;;;;;;;;;;;15.70;99.90;;;;;;5070341;28;20128;-67
2023/05/27 08:57:31;;;;;;;0.20;0.20;;;15.20;99.90;;;;;;5071307;28;19920;-66
2023/05/27 08:59:57;;;;;;;1.13;1.10;;;15.50;99.90;;;;;;5071305;28;20744;-67
2023/05/27 09:02:23;;;;;;;;;;;15.20;99.90;;;;;;5082517;28;20041;-68
2023/05/27 09:04:50;;;;;;;0.50;0.50;;;15.30;99.90;;;;;;5070457;28;19932;-66
2023/05/27 09:07:17;;;;;;;0.60;0.60;;;15.40;99.90;;;;;;5070467;28;20131;-65
2023/05/27 09:09:53;;;;;;;1.60;0.77;;;15.90;99.90;;;;;;5071525;28;20250;-64
2023/05/27 09:12:23;;;;;;;0.63;0.55;;;16.30;99.90;;;;;;5071659;28;20063;-67
2023/05/27 09:14:50;;;;;;;0.30;0.30;;;16.10;99.90;;;;;;5071611;28;20048;-68
2023/05/27 09:17:15;;;;;;;0.40;0.40;;;16.20;99.90;;;;;;5071854;28;20434;-65
2023/05/27 09:19:41;;;;;;;;;;;15.90;99.90;;;;;;5072139;28;20127;-68
2023/05/27 09:22:07;;;;;;;0.40;0.40;;;16.10;99.90;;;;;;5071752;28;19931;-67
2023/05/27 09:24:32;;;;;;;;;;;16.40;99.90;;;;;;5072065;28;20186;-66
2023/05/27 09:26:58;;;;;;;0.40;0.40;;;16.50;99.90;;;;;;5071562;28;19921;-68
2023/05/27 09:29:25;;;;;;;;;;;16.50;99.90;;;;;;5070474;28;20485;-68
2023/05/27 09:31:57;;;;;;;0.25;0.25;;;16.70;99.90;;;;;;5087436;28;20006;-66
2023/05/27 09:34:23;;;;;;;1.88;1.13;;;16.80;99.90;;;;;;5112195;28;20641;-66
2023/05/27 09:36:50;;;;;;;;;;;16.70;99.90;;;;;;5112399;28;20130;-67
2023/05/27 09:39:18;;;;;;;0.20;0.20;;;16.80;99.90;;;;;;5112069;28;20004;-67
2023/05/27 09:41:51;;;;;;;0.40;0.40;;;17.10;99.90;;;;;;5111915;28;20039;-68
2023/05/27 09:44:17;;;;;;;2.78;0.50;;;17.00;99.90;;;;;;5112147;28;20044;-69
2023/05/27 09:46:44;;;;;;;;;;;17.20;99.90;;;;;;5113722;28;20065;-65
2023/05/27 09:49:13;;;;;;;0.57;0.57;;;17.40;99.90;;;;;;5115925;28;19958;-64
2023/05/27 09:51:41;;;;;;;0.98;0.98;;;16.70;99.90;;;;;;5097567;28;20050;-67
2023/05/27 09:54:07;;;;;;;0.45;0.45;;;17.00;99.90;;;;;;5115823;28;20052;-67
2023/05/27 09:56:34;;;;;;;1.23;1.13;;;17.00;99.90;;;;;;5115674;28;20568;-68
2023/05/27 09:59:00;;;;;;;0.50;0.50;;;16.90;99.90;;;;;;5115916;28;20083;-65
2023/05/27 10:01:28;;;;;;;0.47;0.47;;;16.90;99.90;;;;;;5115810;28;20484;-67
2023/05/27 10:03:56;;;;;;;0.22;0.22;;;17.40;99.90;;;;;;5115759;28;20066;-68
2023/05/27 10:06:24;;;;;;;0.55;0.55;;;17.10;99.90;;;;;;5115580;28;20454;-69
2023/05/27 10:08:53;;;;;;;0.10;0.10;;;17.20;99.90;;;;;;5115405;28;20101;-68
2023/05/27 10:11:19;;;;;;;4.93;0.85;;;17.40;99.90;;;;;;5115282;28;20039;-69
2023/05/27 10:13:46;;;;;;;0.45;0.45;;;17.50;99.90;;;;;;5115629;28;20050;-66
2023/05/27 10:16:27;;;;;;;2.90;2.58;;;17.50;99.90;;;;;;5115487;28;20050;-67
2023/05/27 10:18:54;;;;;;;0.57;0.57;;;17.70;99.90;;;;;;5115400;28;20058;-67
2023/05/27 10:21:21;;;;;;;0.15;0.15;;;18.00;99.90;;;;;;5115287;28;20054;-68
2023/05/27 10:23:58;;;;;;;1.15;0.95;;;17.50;99.90;;;;;;5115144;28;20367;-66
2023/05/27 10:26:36;;;;;;;0.77;0.77;;;17.70;99.90;;;;;;5115295;28;20056;-66
2023/05/27 10:29:17;;;;;;;0.77;0.43;;;17.60;99.90;;;;;;5115337;28;20090;-65
2023/05/27 10:31:51;;;;;;;1.20;1.10;;;17.70;99.90;;;;;;5115153;28;20097;-67
2023/05/27 10:34:17;;;;;;;0.90;0.68;;;17.50;99.90;;;;;;5115110;28;20407;-65
2023/05/27 10:36:57;;;;;;;1.00;1.00;;;17.00;99.90;;;;;;5115223;28;20047;-65
2023/05/27 10:39:23;;;;;;;0.50;0.50;;;17.00;99.90;;;;;;5115173;28;20048;-69
2023/05/27 10:41:50;;;;;;;0.98;0.65;;;17.10;99.90;;;;;;5115068;28;20043;-68
2023/05/27 10:44:35;;;;;;;0.40;0.40;;;17.30;99.90;;;;;;5114891;28;20043;-67
2023/05/27 10:47:12;;;;;;;0.30;0.30;;;17.60;99.90;;;;;;5097026;28;20062;-67
2023/05/27 10:49:39;;;;;;;0.80;0.57;;;17.70;99.90;;;;;;5114674;28;20135;-69
2023/05/27 10:52:13;;;;;;;1.90;0.63;;;18.00;99.90;;;;;;5114798;28;20126;-66
2023/05/27 10:54:41;;;;;;;2.00;1.25;;;17.60;99.90;;;;;;5114638;28;20455;-66
2023/05/27 10:57:07;;;;;;;4.38;0.75;;;17.70;99.90;;;;;;5114407;28;20046;-66
2023/05/27 10:59:48;;;;;;;0.75;0.57;;;17.90;99.90;;;;;;5114468;28;20056;-65
2023/05/27 11:02:14;;;;;;;1.33;1.23;;;18.30;99.90;;;;;;5114532;28;20086;-67
2023/05/27 11:04:40;;;;;;;0.20;0.20;;;17.90;99.90;;;;;;5114462;28;20083;-68
2023/05/27 11:07:06;;;;;;;1.30;0.50;;;17.80;99.90;;;;;;5114331;28;20097;-67
2023/05/27 11:09:46;;;;;;;0.22;0.17;;;17.90;99.90;;;;;;5114241;28;20100;-68
2023/05/27 11:12:16;;;;;;;0.82;0.43;;;17.70;99.90;;;;;;5114547;28;20492;-67
2023/05/27 11:14:48;;;;;;;2.38;1.38;;;18.00;99.90;;;;;;5114466;28;20043;-65
2023/05/27 11:17:15;;;;;;;0.47;0.13;;;18.10;99.90;;;;;;5114238;28;20055;-66
2023/05/27 11:19:41;;;;;;;0.20;0.20;;;18.20;99.90;;;;;;5114143;28;20088;-67
2023/05/27 11:22:10;;;;;;;1.13;0.75;;;18.10;99.90;;;;;;5095801;28;20087;-66
2023/05/27 11:24:36;;;;;;;0.55;0.52;;;17.90;99.90;;;;;;5114191;28;20116;-65
2023/05/27 11:27:13;;;;;;;0.20;0.20;;;18.20;99.90;;;;;;5112871;28;20062;-64
2023/05/27 11:29:39;;;;;;;;;;;18.30;99.90;;;;;;5113946;28;20100;-66
2023/05/27 11:32:06;;;;;;;2.05;1.60;;;18.50;99.90;;;;;;5114052;28;19924;-67
2023/05/27 11:34:34;;;;;;;1.92;0.88;;;18.50;99.90;;;;;;5113613;28;20059;-68
2023/05/27 11:37:04;;;;;;;0.45;0.38;;;18.60;99.90;;;;;;5095763;28;20053;-66
2023/05/27 11:39:31;;;;;;;0.52;0.20;;;18.50;99.90;;;;;;5113935;28;20381;-65
2023/05/27 11:41:57;;;;;;;1.55;0.85;;;18.40;99.90;;;;;;5113616;28;20047;-65
2023/05/27 11:44:24;;;;;;;1.45;1.35;;;18.30;99.90;;;;;;5113869;28;20066;-64
2023/05/27 11:46:51;;;;;;;0.40;0.38;;;18.70;99.90;;;;;;5113421;28;20483;-65
2023/05/27 11:49:18;;;;;;;0.85;0.63;;;18.40;99.90;;;;;;5113213;28;20551;-66
2023/05/27 11:51:49;;;;;;;2.97;0.63;;;18.40;99.90;;;;;;5113566;28;20079;-65
2023/05/27 11:54:27;;;;;;;0.10;0.10;;;18.70;99.90;;;;;;5113460;28;20090;-67
2023/05/27 11:56:55;;;;;;;0.28;0.22;;;18.30;99.90;;;;;;5113502;28;20043;-65
2023/05/27 11:59:22;;;;;;;0.88;0.68;;;18.30;99.90;;;;;;5113163;28;20088;-67
2023/05/27 12:01:49;;;;;;;3.15;1.23;;;18.20;99.90;;;;;;5113133;28;20130;-66
2023/05/27 12:04:15;;;;;;;0.32;0.32;;;18.30;99.90;;;;;;5111134;27;20082;-66
2023/05/27 12:06:42;;;;;;;0.57;0.57;;;17.80;99.90;;;;;;5111491;28;20047;-66
2023/05/27 12:09:08;;;;;;;0.65;0.50;;;17.80;99.90;;;;;;5112411;28;20072;-66
2023/05/27 12:11:35;;;;;;;1.55;1.45;;;18.30;99.90;;;;;;5112847;28;20100;-66
2023/05/27 12:14:01;;;;;;;1.85;0.68;;;17.80;99.90;;;;;;5113086;28;20098;-65
2023/05/27 12:16:27;;;;;;;0.70;0.35;;;17.90;99.90;;;;;;5112685;28;20134;-67
2023/05/27 12:18:52;;;;;;;0.38;0.38;;;18.40;99.90;;;;;;5078007;28;20173;-66
2023/05/27 12:21:22;;;;;;;1.45;0.73;;;18.50;99.90;;;;;;5112798;28;20055;-67
2023/05/27 12:23:48;;;;;;;1.65;0.57;;;18.80;99.90;;;;;;5112946;28;20135;-65
2023/05/27 12:26:15;;;;;;;0.80;0.30;;;18.40;99.90;;;;;;5112927;28;20126;-67
2023/05/27 12:28:41;;;;;;;0.93;0.93;;;19.00;99.90;;;;;;5112587;28;20054;-67
2023/05/27 12:31:08;;;;;;;4.13;1.60;;;18.50;99.90;;;;;;5112166;28;20130;-65
2023/05/27 12:33:34;;;;;;;0.10;0.10;;;18.60;99.90;;;;;;5116357;27;20051;-67
2023/05/27 12:36:00;;;;;;;2.10;1.55;;;18.80;99.90;;;;;;5122572;27;20432;-67
2023/05/27 12:38:26;;;;;;;0.25;0.25;;;18.40;99.90;;;;;;5120516;27;20051;-66
2023/05/27 12:40:52;;;;;;;0.35;0.35;;;18.20;99.90;;;;;;5112383;28;20040;-65
2023/05/27 12:43:18;;;;;;;0.40;0.40;;;18.40;99.90;;;;;;5112309;28;20051;-66
2023/05/27 12:45:45;;;;;;;0.35;0.35;;;18.30;99.90;;;;;;5112690;28;20111;-66
2023/05/27 12:48:12;;;;;;;0.30;0.20;;;18.50;99.90;;;;;;5112535;28;20050;-65
2023/05/27 12:50:38;;;;;;;1.20;1.08;;;18.80;99.90;;;;;;5112417;28;20184;-66
2023/05/27 12:53:04;;;;;;;1.75;0.40;;;18.50;99.90;;;;;;5112330;28;20043;-67
2023/05/27 12:55:30;;;;;;;5.25;2.58;;;18.50;99.90;;;;;;5112275;28;20042;-66